createdAt,value
2023-01-05T14:45:24.309Z,20.47
2023-01-05T14:50:40.803Z,22.87
2023-01-05T14:55:52.181Z,19.60
2023-01-05T15:00:58.193Z,14.93
2023-01-05T15:06:10.279Z,16.00
2023-01-05T15:11:30.808Z,20.87
2023-01-05T15:17:09.723Z,15.60
2023-01-05T15:22:47.230Z,22.20
2023-01-05T15:28:18.861Z,19.77
2023-01-05T15:33:42.684Z,19.80
2023-01-05T15:38:47.191Z,19.40
2023-01-05T15:43:50.037Z,20.43
2023-01-05T15:48:53.729Z,20.97
2023-01-05T15:53:58.727Z,23.23
2023-01-05T15:59:01.519Z,21.57
2023-01-05T16:04:09.343Z,14.33
2023-01-05T16:09:22.668Z,16.97
2023-01-05T16:14:39.829Z,18.63
2023-01-05T16:19:49.182Z,16.33
2023-01-05T16:25:06.588Z,20.13
2023-01-05T16:30:30.817Z,17.47
2023-01-05T16:35:40.322Z,17.23
2023-01-05T16:40:45.506Z,19.57
2023-01-05T16:45:50.322Z,20.00
2023-01-05T16:50:55.666Z,17.23
2023-01-05T16:56:00.717Z,25.57
2023-01-05T17:01:13.565Z,27.70
2023-01-05T17:06:27.438Z,21.33
2023-01-05T17:11:40.078Z,19.50
2023-01-05T17:16:44.307Z,23.57
2023-01-05T17:21:56.727Z,23.87
2023-01-05T17:26:59.641Z,30.23
2023-01-05T17:32:02.173Z,27.80
2023-01-05T17:37:04.426Z,27.53
2023-01-05T17:42:25.293Z,26.63
2023-01-05T17:47:27.462Z,25.27
2023-01-05T17:52:29.745Z,23.93
2023-01-05T17:57:31.914Z,19.03
2023-01-05T18:02:34.081Z,23.70
2023-01-05T18:07:37.121Z,24.70
2023-01-05T18:17:42.268Z,19.53
2023-01-05T18:38:51.152Z,21.47
2023-01-05T18:43:53.725Z,19.07
2023-01-05T18:48:56.073Z,12.97
2023-01-05T18:53:58.485Z,19.27
2023-01-05T18:59:01.109Z,18.77
2023-01-05T19:04:03.506Z,15.20
2023-01-05T19:09:08.874Z,20.37
2023-01-05T19:14:12.989Z,12.73
2023-01-05T19:19:15.918Z,15.93
2023-01-05T19:24:23.860Z,11.43
2023-01-05T19:29:26.156Z,12.10
2023-01-05T19:34:28.410Z,16.00
2023-01-05T19:39:30.601Z,16.60
2023-01-05T19:44:32.939Z,11.10
2023-01-05T19:49:35.292Z,10.67
2023-01-05T19:54:39.467Z,11.70
2023-01-05T19:59:43.646Z,8.50
2023-01-05T20:04:46.794Z,12.00
2023-01-05T20:09:50.752Z,11.67
2023-01-05T20:14:52.927Z,9.60
2023-01-05T20:19:55.167Z,11.97
2023-01-05T20:24:57.309Z,11.57
2023-01-05T20:29:59.712Z,11.83
2023-01-05T20:35:02.365Z,11.20
2023-01-05T20:40:05.893Z,12.63
2023-01-05T20:45:08.456Z,11.90
2023-01-05T20:50:10.616Z,10.37
2023-01-05T20:55:13.209Z,8.77
2023-01-05T21:00:16.550Z,12.23
2023-01-05T21:05:18.980Z,8.53
2023-01-05T21:10:21.200Z,11.10
2023-01-05T21:15:24.519Z,9.53
2023-01-05T21:20:27.738Z,10.70
2023-01-05T21:25:29.889Z,8.77
2023-01-05T21:30:52.177Z,8.87
2023-01-05T21:35:55.663Z,9.70
2023-01-05T21:41:08.352Z,7.43
2023-01-05T21:46:12.177Z,6.77
2023-01-05T21:51:32.874Z,7.83
2023-01-05T21:56:39.411Z,11.57
2023-01-05T22:01:41.763Z,8.70
2023-01-05T22:06:44.039Z,8.20
2023-01-05T22:11:47.354Z,7.53
2023-01-05T22:16:49.498Z,13.00
2023-01-05T22:21:51.824Z,9.50
2023-01-05T22:26:55.110Z,12.87
2023-01-05T22:31:58.797Z,10.60
2023-01-05T22:37:02.176Z,12.47
2023-01-05T22:42:04.461Z,12.13
2023-01-05T22:47:06.648Z,11.00
2023-01-05T22:52:08.790Z,13.10
2023-01-05T22:57:11.132Z,10.03
2023-01-05T23:02:13.525Z,6.80
2023-01-05T23:07:20.558Z,8.60
2023-01-05T23:12:22.796Z,9.50
2023-01-05T23:17:25.106Z,16.80
2023-01-05T23:22:27.258Z,13.40
2023-01-05T23:27:29.529Z,14.00
2023-01-05T23:32:32.181Z,14.40
2023-01-05T23:37:34.652Z,12.80
2023-01-05T23:42:43.711Z,11.97
2023-01-05T23:47:46.014Z,11.73
2023-01-05T23:52:48.412Z,10.93
2023-01-05T23:57:50.836Z,10.50
